Junction City, WI (54443)

2:26 AM CDT on March 24, 2017 (GMT -0500)
Good Earth Farms | | Change Station

Elev 1191 ft 44.63 °N, 89.91 °W | Updated 7 seconds ago

Overcast
Overcast
37.0 °F
Feels Like 37 °F
N
0.9
Wind Variable Wind from NNW
Gusts 2.5 mph

Today
High -- | Low -- °F
--% Chance of Precip.
Yesterday
High -- | Low -- °F
Precip. -- in
Pressure 29.90 in
Visibility 5.0 miles
Clouds Scattered Clouds 5000 ft
Overcast 6500 ft
Windchill 37 °F
Dew Point 22 °F
Humidity 54%
Rainfall 0.00 in
Snow Depth Not available.
6:54 AM 7:16 PM
Waning Crescent, 17% visible
METAR KSTE 240655Z AUTO 00000KT 5SM -RA SCT050 OVC065 02/02 A2990 RMK AO2 T00150015
Pressure 29.90 in
Visibility 5.0 miles
Clouds Scattered Clouds 5000 ft
Overcast 6500 ft
Windchill 37 °F
Dew Point 22 °F
Humidity 54%
Rainfall 0.00 in
Snow Depth Not available.
6:54 AM 7:16 PM
Waning Crescent, 17% visible
METAR KSTE 240655Z AUTO 00000KT 5SM -RA SCT050 OVC065 02/02 A2990 RMK AO2 T00150015

Get Severe Weather Alerts

Thanks for signing up!

Be on the lookout for a verification email in your inbox.

You'll start receiving the daily forecast at 8 AM.

×

10-Day Weather Forecast

Almanac

Astronomy

Mar. 24, 2017 Rise Set
Actual Time
Civil Twilight
Nautical Twilight
Astronomical Twilight
Moon
Length of Visible Light
Length of Day
Tomorrow will be .
, % of the Moon is Illuminated

Today's Extremes

State Highs State Lows

Community

WunderPhotos

Upload Photos

1,962,540 photos uploaded!

WunderBlog® & News

Nearby

Air Quality

  Air Quality AQ Index Pollutant
Not available.

Snow Depth

Station Depth Elevation

Earthquake Activity

City Distance Mag. Time & Date
Minimum magnitude displayed is 2.5.

Earthquake Activity

City Distance Mag. Time & Date
Minimum magnitude displayed is 2.5.

Coastal Water Temperatures

Place Temperature

Stations

Nearby Weather Stations

Station Location Temp. Windchill Dew Point Humidity Wind Precip. Elev Updated Type
                   

Watches & Warnings

There are currently no watches in effect.